Time;durP1;ratioP1;P1;durP2;ratioP2;P2;SDS_P1;SDS_P2;PMS_P1;PMS_P2;Temp;Humidity;BMP_temperature;BMP_pressure;BME280_temperature;BME280_humidity;BME280_pressure;Samples;Min_cycle;Max_cycle;Signal;HPM_P1;HPM_P2
2023/03/18 00:01:12;;;;;;;16.10;9.50;;;11.70;99.90;;;;;;4860312;29;20203;-62
2023/03/18 00:03:40;;;;;;;17.73;8.87;;;11.70;99.90;;;;;;4858956;29;20231;-62
2023/03/18 00:06:10;;;;;;;15.17;9.57;;;11.70;99.90;;;;;;4858920;29;21025;-61
2023/03/18 00:08:39;;;;;;;14.03;8.70;;;11.70;99.90;;;;;;4859135;29;20227;-61
2023/03/18 00:11:11;;;;;;;11.70;8.03;;;11.70;99.90;;;;;;4848990;29;20246;-62
2023/03/18 00:13:41;;;;;;;10.60;7.50;;;11.80;99.90;;;;;;4854533;29;20227;-61
2023/03/18 00:16:11;;;;;;;13.23;7.83;;;11.80;99.90;;;;;;4855891;29;20536;-62
2023/03/18 00:18:40;;;;;;;11.47;7.80;;;11.80;99.90;;;;;;4856921;29;20227;-62
2023/03/18 00:21:09;;;;;;;13.67;7.63;;;11.70;99.90;;;;;;4857179;29;20227;-62
2023/03/18 00:23:38;;;;;;;14.77;8.60;;;11.80;99.90;;;;;;4854212;29;20248;-61
2023/03/18 00:26:07;;;;;;;17.23;9.07;;;11.70;99.90;;;;;;4857119;29;20235;-61
2023/03/18 00:28:38;;;;;;;15.77;9.53;;;11.70;99.90;;;;;;4853944;29;20200;-61
2023/03/18 00:31:07;;;;;;;14.60;9.30;;;11.70;99.90;;;;;;4854593;29;20198;-62
2023/03/18 00:33:37;;;;;;;16.73;9.30;;;11.70;99.90;;;;;;4857299;29;20220;-62
2023/03/18 00:36:09;;;;;;;16.93;9.27;;;11.70;99.90;;;;;;4856994;29;20352;-62
2023/03/18 00:38:37;;;;;;;14.20;8.87;;;11.70;99.90;;;;;;4860646;29;20230;-61
2023/03/18 00:41:10;;;;;;;14.53;9.17;;;11.70;99.90;;;;;;4855430;29;20230;-61
2023/03/18 00:43:48;;;;;;;21.00;10.03;;;11.70;99.90;;;;;;4852954;29;20215;-61
2023/03/18 00:46:17;;;;;;;15.50;9.00;;;11.60;99.90;;;;;;4857011;29;20226;-61
2023/03/18 00:48:47;;;;;;;16.27;9.77;;;11.60;99.90;;;;;;4853832;29;20258;-62
2023/03/18 00:51:16;;;;;;;16.07;9.03;;;11.60;99.90;;;;;;4857297;29;20237;-62
2023/03/18 00:53:47;;;;;;;14.63;9.13;;;11.60;99.90;;;;;;4854593;29;20223;-62
2023/03/18 00:56:17;;;;;;;20.37;10.40;;;11.60;99.90;;;;;;4858678;29;20223;-61
2023/03/18 00:58:48;;;;;;;12.27;8.83;;;11.60;99.90;;;;;;4857841;29;20230;-62
2023/03/18 01:01:17;;;;;;;22.07;9.77;;;11.50;99.90;;;;;;4858844;29;20199;-61
2023/03/18 01:03:48;;;;;;;14.67;9.50;;;11.50;99.90;;;;;;4857698;29;20288;-62
2023/03/18 01:06:19;;;;;;;14.13;8.33;;;11.50;99.90;;;;;;4859068;29;20226;-61
2023/03/18 01:08:47;;;;;;;17.63;8.87;;;11.50;99.90;;;;;;4851549;29;20658;-62
2023/03/18 01:11:16;;;;;;;15.37;9.33;;;11.60;99.90;;;;;;4852642;29;20315;-61
2023/03/18 01:13:47;;;;;;;13.97;9.00;;;11.50;99.90;;;;;;4854075;29;20255;-61
2023/03/18 01:16:16;;;;;;;13.77;9.17;;;11.50;99.90;;;;;;4856915;29;20224;-62
2023/03/18 01:18:45;;;;;;;14.43;8.60;;;11.50;99.90;;;;;;4858460;29;20627;-62
2023/03/18 01:21:14;;;;;;;16.13;8.37;;;11.50;99.90;;;;;;4857443;29;20234;-61
2023/03/18 01:23:42;;;;;;;12.93;8.37;;;11.50;99.90;;;;;;4856622;29;20227;-61
2023/03/18 01:26:11;;;;;;;13.97;7.97;;;11.50;99.90;;;;;;4852498;29;20718;-61
2023/03/18 01:28:40;;;;;;;15.70;8.63;;;11.50;99.90;;;;;;4860407;29;20240;-61
2023/03/18 01:31:11;;;;;;;12.77;8.30;;;11.40;99.90;;;;;;4851459;29;20218;-62
2023/03/18 01:33:40;;;;;;;14.23;8.63;;;11.40;99.90;;;;;;4853163;29;20234;-62
2023/03/18 01:36:09;;;;;;;12.40;8.60;;;11.50;99.90;;;;;;4853417;29;20222;-62
2023/03/18 01:38:39;;;;;;;16.20;9.23;;;11.40;99.90;;;;;;4854277;29;20266;-61
2023/03/18 01:41:08;;;;;;;16.90;8.73;;;11.40;99.90;;;;;;4856562;29;20258;-61
2023/03/18 01:43:39;;;;;;;15.23;8.80;;;11.40;99.90;;;;;;4851830;29;20223;-61
2023/03/18 01:46:38;;;;;;;14.10;9.07;;;11.40;99.90;;;;;;4854561;29;20218;-61
2023/03/18 01:49:12;;;;;;;13.83;9.20;;;11.40;99.90;;;;;;4853140;29;20223;-61
2023/03/18 01:51:42;;;;;;;13.77;9.40;;;11.40;99.90;;;;;;4853396;29;20361;-61
2023/03/18 01:54:12;;;;;;;13.67;9.73;;;11.40;99.90;;;;;;4854513;29;21063;-61
2023/03/18 01:56:43;;;;;;;14.97;10.23;;;11.40;99.90;;;;;;4850986;29;20231;-61
2023/03/18 01:59:14;;;;;;;13.03;9.60;;;11.40;99.90;;;;;;4856259;29;20758;-61
2023/03/18 02:01:50;;;;;;;14.73;9.77;;;11.30;99.90;;;;;;4856947;29;20242;-61
2023/03/18 02:04:21;;;;;;;18.20;10.87;;;11.30;99.90;;;;;;4856342;29;20191;-62
2023/03/18 02:06:49;;;;;;;15.03;10.00;;;11.30;99.90;;;;;;4857426;29;20231;-62
2023/03/18 02:09:18;;;;;;;20.57;10.90;;;11.30;99.90;;;;;;4856362;29;20278;-62
2023/03/18 02:11:48;;;;;;;20.03;11.23;;;11.30;99.90;;;;;;4856024;29;20668;-61
2023/03/18 02:14:20;;;;;;;16.33;10.20;;;11.30;99.90;;;;;;4861450;29;20234;-61
2023/03/18 02:16:55;;;;;;;19.10;10.90;;;11.20;99.90;;;;;;4861661;29;20290;-61
2023/03/18 02:19:46;;;;;;;20.10;10.67;;;11.20;99.90;;;;;;4855899;29;20198;-60
2023/03/18 02:22:24;;;;;;;17.10;10.60;;;11.20;99.90;;;;;;4858819;29;20345;-62
2023/03/18 02:25:11;;;;;;;19.47;10.97;;;11.20;99.90;;;;;;4864862;29;20235;-62
2023/03/18 02:27:44;;;;;;;15.87;11.50;;;11.20;99.90;;;;;;4858384;29;20228;-62
2023/03/18 02:30:17;;;;;;;20.67;12.00;;;11.20;99.90;;;;;;4855362;29;22165;-62
2023/03/18 02:32:48;;;;;;;22.47;12.73;;;11.20;99.90;;;;;;4861134;29;20224;-61
2023/03/18 02:35:17;;;;;;;21.37;12.60;;;11.20;99.90;;;;;;4858204;29;20306;-61
2023/03/18 02:37:45;;;;;;;23.67;14.17;;;11.20;99.90;;;;;;4856155;29;20222;-61
2023/03/18 02:40:15;;;;;;;22.60;14.77;;;11.20;99.90;;;;;;4862598;29;20550;-62
2023/03/18 02:42:47;;;;;;;29.87;16.47;;;11.10;99.90;;;;;;4859613;29;20271;-62
2023/03/18 02:45:30;;;;;;;28.77;17.30;;;11.10;99.90;;;;;;4860316;29;20648;-62
2023/03/18 02:48:02;;;;;;;26.30;16.17;;;11.10;99.90;;;;;;4858442;29;20291;-62
2023/03/18 02:50:31;;;;;;;29.43;16.17;;;11.10;99.90;;;;;;4857112;29;20227;-61
2023/03/18 02:53:00;;;;;;;28.73;16.00;;;11.10;99.90;;;;;;4864748;29;20238;-61
2023/03/18 02:55:29;;;;;;;30.97;15.87;;;11.10;99.90;;;;;;4857654;29;20199;-61
2023/03/18 02:57:59;;;;;;;26.20;15.77;;;11.00;99.90;;;;;;4860540;29;20199;-61
2023/03/18 03:00:28;;;;;;;22.20;15.10;;;11.00;99.90;;;;;;4861716;29;20216;-61
2023/03/18 03:02:56;;;;;;;24.20;15.10;;;10.90;99.90;;;;;;4860338;29;20235;-62
2023/03/18 03:05:25;;;;;;;28.90;15.67;;;10.80;99.90;;;;;;4860072;29;20319;-61
2023/03/18 03:07:53;;;;;;;24.97;14.27;;;10.80;99.90;;;;;;4855945;29;20280;-61
2023/03/18 03:10:21;;;;;;;21.63;13.83;;;10.70;99.90;;;;;;4852331;29;20295;-62
2023/03/18 03:12:50;;;;;;;23.40;13.83;;;10.70;99.90;;;;;;4856858;29;20226;-62
2023/03/18 03:15:20;;;;;;;20.47;13.20;;;10.70;99.90;;;;;;4843163;29;20231;-61
2023/03/18 03:17:48;;;;;;;17.27;12.43;;;10.70;99.90;;;;;;4859608;29;20219;-62
2023/03/18 03:20:17;;;;;;;20.60;13.60;;;10.70;99.90;;;;;;4858559;29;20247;-61
2023/03/18 03:22:46;;;;;;;18.77;13.27;;;10.60;99.90;;;;;;4858998;29;20235;-61
2023/03/18 03:25:14;;;;;;;19.23;13.43;;;10.60;99.90;;;;;;4857299;29;20222;-62
2023/03/18 03:27:43;;;;;;;22.50;12.97;;;10.60;99.90;;;;;;4858606;29;20223;-62
2023/03/18 03:30:13;;;;;;;18.03;12.70;;;10.60;99.90;;;;;;4861596;29;20245;-61
2023/03/18 03:32:43;;;;;;;20.57;12.87;;;10.60;99.90;;;;;;4858034;29;20706;-62
2023/03/18 03:35:13;;;;;;;19.00;12.40;;;10.50;99.90;;;;;;4860971;29;20219;-61
2023/03/18 03:37:42;;;;;;;19.60;12.13;;;10.50;99.90;;;;;;4860769;29;20203;-61
2023/03/18 03:40:13;;;;;;;21.30;12.60;;;10.40;99.90;;;;;;4856672;29;20270;-61
2023/03/18 03:42:42;;;;;;;17.17;12.23;;;10.40;99.90;;;;;;4857928;29;20224;-62
2023/03/18 03:45:12;;;;;;;18.40;12.10;;;10.40;99.90;;;;;;4861036;29;20235;-62
2023/03/18 03:47:45;;;;;;;20.63;12.60;;;10.40;99.90;;;;;;4866583;29;20254;-61
2023/03/18 03:50:13;;;;;;;16.80;12.23;;;10.30;99.90;;;;;;4857990;29;20288;-61
2023/03/18 03:52:44;;;;;;;19.53;11.90;;;10.40;99.90;;;;;;4859452;29;20199;-61
2023/03/18 03:55:16;;;;;;;17.50;12.10;;;10.40;99.90;;;;;;4859763;29;20200;-62
2023/03/18 03:57:45;;;;;;;18.27;11.23;;;10.30;99.90;;;;;;4855394;29;20216;-62
2023/03/18 04:00:17;;;;;;;18.30;12.03;;;10.30;99.90;;;;;;4859911;29;20223;-62
2023/03/18 04:02:48;;;;;;;16.67;12.03;;;10.30;99.90;;;;;;4858091;29;20223;-62
2023/03/18 04:05:18;;;;;;;17.40;12.20;;;10.30;99.90;;;;;;4862329;29;21201;-61
2023/03/18 04:07:47;;;;;;;18.73;12.63;;;10.20;99.90;;;;;;4856242;29;20713;-61
2023/03/18 04:10:18;;;;;;;17.70;12.07;;;10.20;99.90;;;;;;4856919;29;20207;-62
2023/03/18 04:12:47;;;;;;;17.97;11.97;;;10.10;99.90;;;;;;4858843;29;20253;-61
2023/03/18 04:15:16;;;;;;;19.80;12.57;;;10.00;99.90;;;;;;4856629;29;20232;-62
2023/03/18 04:17:46;;;;;;;21.07;13.07;;;10.00;99.90;;;;;;4859761;29;20291;-62
2023/03/18 04:20:15;;;;;;;18.60;12.13;;;9.90;99.90;;;;;;4858467;29;20226;-61
2023/03/18 04:22:44;;;;;;;18.03;12.33;;;9.80;99.90;;;;;;4858757;29;20239;-61
2023/03/18 04:25:13;;;;;;;21.77;13.83;;;9.80;99.90;;;;;;4858924;29;20195;-61
2023/03/18 04:27:43;;;;;;;21.23;13.87;;;9.80;99.90;;;;;;4857261;29;20227;-62
2023/03/18 04:30:13;;;;;;;20.70;13.40;;;9.80;99.90;;;;;;4860156;29;20231;-62
2023/03/18 04:32:43;;;;;;;23.67;14.83;;;9.80;99.90;;;;;;4854099;29;20917;-62
2023/03/18 04:35:15;;;;;;;25.83;14.33;;;9.80;99.90;;;;;;4858599;29;20239;-61
2023/03/18 04:37:43;;;;;;;23.80;14.97;;;9.80;99.90;;;;;;4858850;29;20200;-62
2023/03/18 04:40:12;;;;;;;24.77;14.33;;;9.80;99.90;;;;;;4858873;29;20207;-62
2023/03/18 04:42:46;;;;;;;25.00;15.50;;;9.70;99.90;;;;;;4857657;29;20741;-62
2023/03/18 04:45:16;;;;;;;20.57;14.70;;;9.70;99.90;;;;;;4855823;29;20283;-61
2023/03/18 04:47:44;;;;;;;28.63;16.33;;;9.70;99.90;;;;;;4856460;29;20284;-62
2023/03/18 04:50:15;;;;;;;27.77;15.60;;;9.70;99.90;;;;;;4856433;29;20246;-61
2023/03/18 04:52:44;;;;;;;25.93;15.20;;;9.60;99.90;;;;;;4858397;29;20203;-61
2023/03/18 04:55:15;;;;;;;25.80;15.57;;;9.60;99.90;;;;;;4857950;29;20295;-61
2023/03/18 04:57:43;;;;;;;26.73;15.90;;;9.50;99.90;;;;;;4858441;29;20222;-61
2023/03/18 05:00:16;;;;;;;29.13;16.50;;;9.50;99.90;;;;;;4855496;29;20721;-62
2023/03/18 05:02:44;;;;;;;27.17;16.67;;;9.50;99.90;;;;;;4858269;29;20226;-62
2023/03/18 05:05:14;;;;;;;27.00;17.50;;;9.50;99.90;;;;;;4858832;29;20235;-61
2023/03/18 05:07:45;;;;;;;29.57;17.87;;;9.50;99.90;;;;;;4859105;29;20298;-62
2023/03/18 05:10:13;;;;;;;34.60;18.00;;;9.50;99.90;;;;;;4855882;29;20233;-62
2023/03/18 05:12:42;;;;;;;30.57;18.13;;;9.40;99.90;;;;;;4855610;29;20227;-62
2023/03/18 05:15:11;;;;;;;31.43;17.87;;;9.40;99.90;;;;;;4857652;29;20239;-62
2023/03/18 05:17:40;;;;;;;33.40;18.93;;;9.40;99.90;;;;;;4856142;29;20698;-62
2023/03/18 05:20:10;;;;;;;30.60;18.80;;;9.30;99.90;;;;;;4857207;29;20227;-62
2023/03/18 05:22:39;;;;;;;31.80;18.57;;;9.30;99.90;;;;;;4850884;29;20251;-62
2023/03/18 05:25:10;;;;;;;34.77;19.53;;;9.20;99.90;;;;;;4857553;29;20219;-61
2023/03/18 05:27:38;;;;;;;32.57;18.57;;;9.20;99.90;;;;;;4857288;29;20231;-61
2023/03/18 05:30:09;;;;;;;36.07;19.67;;;9.10;99.90;;;;;;4863475;29;20334;-61
2023/03/18 05:32:38;;;;;;;33.30;19.07;;;9.10;99.90;;;;;;4857647;29;20300;-62
2023/03/18 05:35:08;;;;;;;33.17;19.80;;;9.10;99.90;;;;;;4859061;29;20321;-61
2023/03/18 05:37:36;;;;;;;38.63;21.13;;;9.00;99.90;;;;;;4860791;29;20192;-61
2023/03/18 05:40:08;;;;;;;37.37;20.03;;;9.00;99.90;;;;;;4857900;29;20236;-62
2023/03/18 05:42:37;;;;;;;36.27;20.93;;;9.10;99.90;;;;;;4854836;29;20236;-62
2023/03/18 05:45:23;;;;;;;39.07;20.97;;;9.00;99.90;;;;;;4856573;29;20231;-61
2023/03/18 05:47:51;;;;;;;38.87;20.60;;;9.00;99.90;;;;;;4860869;29;20699;-62
2023/03/18 05:50:28;;;;;;;42.00;21.30;;;9.00;99.90;;;;;;4862268;29;20227;-62
2023/03/18 05:52:57;;;;;;;39.10;20.43;;;9.00;99.90;;;;;;4862053;29;20226;-61
2023/03/18 05:55:28;;;;;;;44.73;22.27;;;9.00;99.90;;;;;;4860494;29;20202;-61
2023/03/18 05:57:57;;;;;;;45.30;22.33;;;9.00;99.90;;;;;;4861273;29;20608;-61
2023/03/18 06:00:27;;;;;;;51.67;22.80;;;9.00;99.90;;;;;;4859859;29;20227;-61
2023/03/18 06:02:57;;;;;;;40.23;22.87;;;9.00;99.90;;;;;;4859897;29;20306;-61
2023/03/18 06:05:25;;;;;;;43.23;22.50;;;8.90;99.90;;;;;;4859299;29;20219;-61
2023/03/18 06:07:54;;;;;;;45.20;22.87;;;9.00;99.90;;;;;;4861968;29;20630;-61
2023/03/18 06:10:23;;;;;;;46.87;22.83;;;9.10;99.90;;;;;;4859720;29;20271;-61
2023/03/18 06:12:55;;;;;;;40.57;23.43;;;9.20;99.90;;;;;;4857754;29;20231;-62
2023/03/18 06:15:24;;;;;;;42.23;22.10;;;9.20;99.90;;;;;;4861884;29;20292;-62
2023/03/18 06:17:52;;;;;;;41.80;22.50;;;9.10;99.90;;;;;;4857444;29;20315;-62
2023/03/18 06:20:22;;;;;;;38.87;22.63;;;9.10;99.90;;;;;;4862334;29;20286;-61
2023/03/18 06:22:50;;;;;;;40.97;23.30;;;9.30;99.90;;;;;;4862363;29;20234;-62
2023/03/18 06:25:20;;;;;;;43.23;21.83;;;9.40;99.90;;;;;;4860096;29;20310;-62
2023/03/18 06:27:48;;;;;;;39.23;21.87;;;9.40;99.90;;;;;;4858523;29;20223;-61
2023/03/18 06:30:19;;;;;;;35.70;20.53;;;9.50;99.90;;;;;;4858427;29;20231;-61
2023/03/18 06:32:47;;;;;;;39.87;21.17;;;9.50;99.90;;;;;;4857505;29;20235;-61
2023/03/18 06:35:16;;;;;;;33.07;20.43;;;9.60;99.90;;;;;;4859563;29;20254;-61
2023/03/18 06:37:47;;;;;;;41.37;20.93;;;9.70;99.90;;;;;;4859921;29;20238;-61
2023/03/18 06:40:16;;;;;;;34.67;20.27;;;9.70;99.90;;;;;;4861311;29;20287;-62
2023/03/18 06:42:45;;;;;;;30.43;19.07;;;9.80;99.90;;;;;;4859734;29;20233;-62
2023/03/18 06:45:14;;;;;;;33.90;20.03;;;9.90;99.90;;;;;;4859935;29;20231;-61
2023/03/18 06:47:43;;;;;;;29.23;18.23;;;9.90;99.90;;;;;;4859230;29;20255;-61
2023/03/18 06:50:12;;;;;;;34.53;18.70;;;9.90;99.90;;;;;;4861139;29;20613;-61
2023/03/18 06:52:41;;;;;;;27.07;17.43;;;9.90;99.90;;;;;;4857512;29;20558;-61
2023/03/18 06:55:10;;;;;;;32.83;18.60;;;9.90;99.90;;;;;;4849755;29;20215;-61
2023/03/18 06:57:39;;;;;;;31.10;18.30;;;10.00;99.90;;;;;;4865743;29;20318;-61
2023/03/18 07:00:09;;;;;;;28.00;18.13;;;10.00;99.90;;;;;;4858861;29;20227;-63
2023/03/18 07:02:37;;;;;;;29.00;18.03;;;10.00;99.90;;;;;;4860968;29;20230;-62
2023/03/18 07:05:11;;;;;;;30.07;17.97;;;10.00;99.90;;;;;;4861360;29;20351;-61
2023/03/18 07:07:40;;;;;;;30.00;17.80;;;10.00;99.90;;;;;;4860362;29;20218;-61
2023/03/18 07:10:14;;;;;;;28.27;17.67;;;10.10;99.90;;;;;;4862586;29;20606;-62
2023/03/18 07:12:42;;;;;;;25.63;16.97;;;10.10;99.90;;;;;;4866545;29;20231;-62
2023/03/18 07:15:11;;;;;;;25.50;17.07;;;10.10;99.90;;;;;;4856701;29;20231;-61
2023/03/18 07:17:43;;;;;;;28.27;17.60;;;10.20;99.90;;;;;;4858010;29;20643;-61
2023/03/18 07:20:16;;;;;;;27.57;16.83;;;10.30;99.90;;;;;;4858488;29;20227;-62
2023/03/18 07:22:46;;;;;;;21.60;15.63;;;10.40;99.90;;;;;;4858776;29;20262;-61
2023/03/18 07:25:15;;;;;;;26.10;17.00;;;10.50;99.90;;;;;;4860512;29;20271;-62
2023/03/18 07:27:44;;;;;;;26.13;16.60;;;10.60;99.90;;;;;;4861646;29;20633;-61
2023/03/18 07:30:13;;;;;;;28.63;16.87;;;10.70;99.90;;;;;;4864270;29;20231;-61
2023/03/18 07:32:42;;;;;;;26.03;16.23;;;10.90;99.90;;;;;;4859337;29;20920;-61
2023/03/18 07:35:14;;;;;;;23.40;15.73;;;11.20;99.90;;;;;;4861892;29;20239;-61
2023/03/18 07:37:43;;;;;;;25.40;14.70;;;11.70;99.90;;;;;;4860313;29;20314;-61
2023/03/18 07:40:12;;;;;;;20.97;15.33;;;11.90;99.90;;;;;;4859750;29;20203;-61
2023/03/18 07:42:41;;;;;;;23.47;14.40;;;12.20;99.90;;;;;;4860687;29;20647;-62
2023/03/18 07:45:10;;;;;;;19.03;14.17;;;12.50;99.90;;;;;;4863313;29;20368;-61
2023/03/18 07:47:38;;;;;;;23.93;13.50;;;12.80;99.90;;;;;;4841133;29;20267;-61
2023/03/18 07:50:08;;;;;;;23.03;13.90;;;13.00;99.90;;;;;;4843562;29;20235;-61
2023/03/18 07:52:37;;;;;;;19.47;12.47;;;13.30;99.90;;;;;;4858601;29;20203;-61
2023/03/18 07:55:07;;;;;;;17.53;12.57;;;13.70;99.90;;;;;;4859417;29;20204;-62
2023/03/18 07:57:36;;;;;;;18.47;11.30;;;13.90;99.90;;;;;;4858447;29;20264;-62
2023/03/18 08:00:06;;;;;;;15.70;11.00;;;13.90;99.90;;;;;;4859314;29;20275;-61
2023/03/18 08:02:35;;;;;;;12.93;9.57;;;13.80;99.90;;;;;;4854121;29;20235;-62
2023/03/18 08:05:05;;;;;;;17.13;10.40;;;13.70;99.90;;;;;;4858147;29;20220;-61
2023/03/18 08:07:34;;;;;;;11.00;9.43;;;13.60;99.90;;;;;;4852852;29;20635;-61
2023/03/18 08:10:05;;;;;;;12.93;9.33;;;13.70;99.90;;;;;;4854000;29;20272;-62
2023/03/18 08:12:33;;;;;;;12.13;9.37;;;14.10;99.90;;;;;;4852868;29;20598;-62
2023/03/18 08:15:19;;;;;;;13.10;10.00;;;14.30;99.90;;;;;;4852908;29;20314;-62
2023/03/18 08:17:47;;;;;;;12.50;9.23;;;13.90;99.90;;;;;;4850199;29;20781;-61
2023/03/18 08:20:15;;;;;;;14.83;10.37;;;13.60;99.90;;;;;;4847771;29;20239;-62
2023/03/18 08:22:44;;;;;;;12.07;9.53;;;13.40;99.90;;;;;;4852801;29;20266;-61
2023/03/18 08:25:14;;;;;;;13.27;9.17;;;13.20;99.90;;;;;;4851531;29;20600;-62
2023/03/18 08:27:42;;;;;;;14.67;9.40;;;13.00;99.90;;;;;;4855441;29;20586;-62
2023/03/18 08:30:12;;;;;;;11.03;9.00;;;12.90;99.90;;;;;;4852682;29;20231;-62
2023/03/18 08:32:40;;;;;;;11.83;9.33;;;12.70;99.90;;;;;;4855015;29;20238;-62
2023/03/18 08:35:10;;;;;;;11.37;8.87;;;12.60;99.90;;;;;;4856695;29;20235;-61
2023/03/18 08:37:38;;;;;;;11.93;8.97;;;12.60;99.90;;;;;;4855969;29;20203;-61
2023/03/18 08:40:08;;;;;;;12.67;8.53;;;12.50;99.90;;;;;;4863772;29;20183;-62
2023/03/18 08:42:38;;;;;;;13.03;9.80;;;12.50;99.90;;;;;;4849126;29;20238;-62
2023/03/18 08:45:07;;;;;;;13.67;9.40;;;12.40;99.90;;;;;;4830277;29;20234;-62
2023/03/18 08:47:36;;;;;;;14.43;9.60;;;12.50;99.90;;;;;;4851553;29;20280;-62
2023/03/18 08:50:07;;;;;;;14.93;9.30;;;12.50;99.90;;;;;;4846488;29;20749;-61
2023/03/18 08:52:37;;;;;;;11.03;8.97;;;12.50;99.90;;;;;;4852397;29;20266;-60
2023/03/18 08:55:06;;;;;;;13.30;9.43;;;12.50;99.90;;;;;;4851886;29;20227;-62
2023/03/18 08:57:36;;;;;;;10.67;9.57;;;12.40;99.90;;;;;;4853206;29;20236;-61
2023/03/18 09:00:06;;;;;;;12.60;9.57;;;12.30;99.90;;;;;;4855674;29;20259;-61
2023/03/18 09:02:35;;;;;;;12.63;9.53;;;12.20;99.90;;;;;;4854909;29;20869;-61
2023/03/18 09:05:04;;;;;;;12.27;9.07;;;12.10;99.90;;;;;;4855207;29;20239;-61
2023/03/18 09:07:32;;;;;;;14.00;9.97;;;12.10;99.90;;;;;;4853870;29;20218;-61
2023/03/18 09:10:00;;;;;;;12.77;10.00;;;12.10;99.90;;;;;;4854063;29;20259;-62
2023/03/18 09:12:29;;;;;;;13.47;9.60;;;12.10;99.90;;;;;;4851092;29;20290;-61
2023/03/18 09:14:57;;;;;;;13.93;9.60;;;12.00;99.90;;;;;;4855109;29;20235;-61
2023/03/18 09:17:28;;;;;;;13.77;10.20;;;12.00;99.90;;;;;;4854139;29;20231;-61
2023/03/18 09:20:17;;;;;;;15.27;9.80;;;12.00;99.90;;;;;;4866552;29;20219;-61
2023/03/18 09:22:46;;;;;;;17.60;10.00;;;12.00;99.90;;;;;;4850111;29;20239;-61
2023/03/18 09:25:15;;;;;;;15.53;10.50;;;12.00;99.90;;;;;;4856991;29;20203;-61
2023/03/18 09:27:44;;;;;;;14.63;9.30;;;12.10;99.90;;;;;;4857674;29;20993;-61
2023/03/18 09:30:14;;;;;;;14.13;9.80;;;12.20;99.90;;;;;;4860148;29;20283;-61
2023/03/18 09:32:44;;;;;;;17.37;10.10;;;12.30;99.90;;;;;;4862940;29;20223;-62
2023/03/18 09:35:13;;;;;;;14.07;9.77;;;12.40;99.90;;;;;;4857365;29;20251;-61
2023/03/18 09:37:42;;;;;;;12.17;9.33;;;12.50;99.90;;;;;;4838684;29;20203;-61
2023/03/18 09:40:18;;;;;;;16.13;9.10;;;12.70;99.90;;;;;;4851001;29;20199;-62
2023/03/18 09:42:56;;;;;;;13.10;9.00;;;12.90;99.90;;;;;;4854247;29;20736;-61
2023/03/18 09:45:29;;;;;;;12.03;8.73;;;13.00;99.90;;;;;;4853894;29;22144;-62
2023/03/18 09:48:37;;;;;;;11.73;8.77;;;13.00;99.90;;;;;;4840430;29;20234;-61
2023/03/18 09:51:15;;;;;;;11.37;8.93;;;12.90;99.90;;;;;;4855241;29;20679;-61
2023/03/18 09:53:51;;;;;;;13.47;8.53;;;12.90;99.90;;;;;;4854856;29;20254;-61
2023/03/18 09:56:23;;;;;;;10.13;7.83;;;12.70;99.90;;;;;;4854615;29;20223;-61
2023/03/18 09:58:56;;;;;;;13.10;7.87;;;12.70;99.90;;;;;;4857840;29;20686;-61
2023/03/18 10:01:27;;;;;;;11.77;8.83;;;12.70;99.90;;;;;;4852243;29;20200;-59
2023/03/18 10:04:02;;;;;;;11.57;8.30;;;12.70;99.90;;;;;;4853768;29;20284;-62
2023/03/18 10:06:31;;;;;;;12.07;8.77;;;12.70;99.90;;;;;;4856629;29;20226;-61
2023/03/18 10:09:09;;;;;;;14.07;8.83;;;12.80;99.90;;;;;;4848146;29;20223;-61
2023/03/18 10:11:41;;;;;;;11.63;8.50;;;12.90;99.90;;;;;;4849130;29;20818;-61
2023/03/18 10:14:30;;;;;;;13.70;8.13;;;13.00;99.90;;;;;;4856682;29;20227;-61
2023/03/18 10:17:08;;;;;;;13.00;8.20;;;13.00;99.90;;;;;;4859857;29;20782;-61
2023/03/18 10:19:41;;;;;;;10.43;8.40;;;13.10;99.90;;;;;;4839737;29;20227;-61
2023/03/18 10:22:26;;;;;;;16.30;9.23;;;13.20;99.90;;;;;;4856879;29;20232;-62
2023/03/18 10:25:03;;;;;;;10.23;7.07;;;13.60;99.90;;;;;;4852824;29;20226;-62
2023/03/18 10:27:42;;;;;;;7.57;6.37;;;14.10;99.90;;;;;;4854691;29;20342;-62
2023/03/18 10:30:28;;;;;;;7.33;6.30;;;14.40;99.90;;;;;;4850640;29;20237;-62
2023/03/18 10:33:02;;;;;;;8.73;6.07;;;14.90;99.90;;;;;;4854921;29;20279;-62
2023/03/18 10:35:40;;;;;;;8.10;6.10;;;15.10;99.90;;;;;;4859451;29;20231;-61
2023/03/18 10:38:17;;;;;;;6.10;5.50;;;14.90;99.90;;;;;;4858595;29;20250;-61
2023/03/18 10:40:48;;;;;;;6.83;5.27;;;15.10;99.90;;;;;;4856785;29;20231;-61
2023/03/18 10:43:19;;;;;;;4.47;4.10;;;16.20;99.90;;;;;;4856964;29;20210;-62
2023/03/18 10:45:51;;;;;;;4.70;4.30;;;17.10;99.90;;;;;;4858856;29;20694;-62
2023/03/18 10:48:27;;;;;;;4.73;4.10;;;17.70;99.90;;;;;;4854539;29;20303;-62
2023/03/18 10:51:08;;;;;;;5.47;4.10;;;17.80;99.90;;;;;;4848078;29;20783;-61
2023/03/18 10:53:42;;;;;;;4.30;3.90;;;17.90;99.90;;;;;;4851816;29;20230;-61
2023/03/18 10:56:12;;;;;;;3.80;3.60;;;18.10;99.90;;;;;;4858605;29;20231;-61
2023/03/18 10:58:42;;;;;;;3.53;3.23;;;18.30;99.90;;;;;;4861925;29;20198;-61
2023/03/18 11:01:14;;;;;;;4.30;3.53;;;18.70;99.90;;;;;;4857602;29;20282;-61
2023/03/18 11:03:53;;;;;;;3.53;3.27;;;18.60;99.90;;;;;;4855673;29;20255;-62
2023/03/18 11:06:28;;;;;;;3.90;3.60;;;18.90;99.90;;;;;;4859049;29;20262;-61
2023/03/18 11:09:07;;;;;;;3.27;3.00;;;19.30;99.90;;;;;;4853629;29;20226;-62
2023/03/18 11:11:38;;;;;;;3.50;3.20;;;19.00;99.90;;;;;;4854490;29;20237;-61
2023/03/18 11:14:14;;;;;;;3.17;2.90;;;18.90;99.90;;;;;;4846842;29;20329;-61
2023/03/18 11:16:49;;;;;;;3.33;3.00;;;18.40;99.90;;;;;;4865153;29;20581;-61
2023/03/18 11:19:37;;;;;;;3.23;3.03;;;18.50;99.90;;;;;;4855083;29;20195;-61
2023/03/18 11:22:20;;;;;;;3.13;2.80;;;19.10;99.90;;;;;;4861155;29;20629;-61
2023/03/18 11:25:02;;;;;;;2.93;2.83;;;18.70;99.90;;;;;;4841577;29;20579;-61
2023/03/18 11:27:40;;;;;;;2.77;2.57;;;17.60;99.90;;;;;;4850770;29;20648;-61
2023/03/18 11:30:17;;;;;;;3.90;3.17;;;17.00;99.90;;;;;;4853958;29;20238;-61
2023/03/18 11:33:05;;;;;;;4.33;3.20;;;16.60;99.90;;;;;;4855329;29;20610;-61
2023/03/18 11:35:40;;;;;;;3.50;3.20;;;16.30;99.90;;;;;;4856120;29;20225;-61
2023/03/18 11:38:17;;;;;;;3.00;2.80;;;16.20;99.90;;;;;;4858721;29;20224;-60
2023/03/18 11:40:48;;;;;;;3.03;2.83;;;16.90;99.90;;;;;;4856687;29;20238;-60
2023/03/18 11:43:19;;;;;;;2.60;2.50;;;17.80;99.90;;;;;;4850422;29;20234;-61
2023/03/18 11:45:53;;;;;;;2.60;2.50;;;18.30;99.90;;;;;;4859634;29;20218;-61
2023/03/18 11:48:30;;;;;;;2.10;2.00;;;18.50;99.90;;;;;;4854970;29;20235;-61
2023/03/18 11:51:16;;;;;;;2.50;2.30;;;18.60;99.90;;;;;;4857491;29;20253;-61
2023/03/18 11:53:57;;;;;;;2.30;2.10;;;18.40;99.90;;;;;;4852963;29;20636;-61
2023/03/18 11:56:33;;;;;;;2.97;2.50;;;18.50;99.90;;;;;;4856719;29;20223;-61
2023/03/18 11:59:39;;;;;;;3.60;2.73;;;18.60;99.90;;;;;;4850687;29;20275;-60
2023/03/18 12:02:26;;;;;;;3.43;2.90;;;18.10;99.90;;;;;;4856151;29;20761;-60
2023/03/18 12:05:31;;;;;;;2.87;2.53;;;18.10;99.90;;;;;;4854452;29;20299;-61
2023/03/18 12:08:09;;;;;;;4.50;2.50;;;18.30;99.90;;;;;;4826125;29;21157;-62
2023/03/18 12:10:47;;;;;;;2.17;1.97;;;18.40;99.90;;;;;;4856763;29;20834;-60
2023/03/18 12:13:28;;;;;;;2.07;1.93;;;18.30;99.90;;;;;;4858336;29;20313;-61
2023/03/18 12:16:03;;;;;;;2.40;2.30;;;18.30;99.90;;;;;;4853624;29;20329;-61
2023/03/18 12:18:50;;;;;;;2.50;2.40;;;17.80;99.90;;;;;;4864381;29;20295;-62
2023/03/18 12:21:34;;;;;;;6.73;2.90;;;17.80;99.90;;;;;;4854526;29;20231;-60
2023/03/18 12:24:19;;;;;;;2.27;2.17;;;17.80;99.90;;;;;;4857488;29;20223;-61
2023/03/18 12:26:57;;;;;;;2.93;2.60;;;17.90;99.90;;;;;;4854147;29;20328;-60
2023/03/18 12:29:50;;;;;;;4.30;2.30;;;18.00;99.90;;;;;;4856429;29;20623;-60
2023/03/18 12:32:29;;;;;;;2.40;2.23;;;18.10;99.90;;;;;;4857516;29;20515;-61
2023/03/18 12:35:23;;;;;;;3.07;2.50;;;18.20;99.90;;;;;;4858912;29;20231;-60
2023/03/18 12:38:13;;;;;;;4.30;2.40;;;18.10;99.90;;;;;;4856136;29;20227;-62
2023/03/18 12:40:52;;;;;;;4.13;2.30;;;18.20;99.90;;;;;;4859819;29;20276;-58
2023/03/18 12:43:43;;;;;;;5.83;2.40;;;18.20;99.90;;;;;;4856592;29;20247;-59
2023/03/18 12:46:26;;;;;;;6.13;2.47;;;18.00;99.90;;;;;;4850167;29;20240;-59
2023/03/18 12:49:02;;;;;;;2.50;2.23;;;17.90;99.90;;;;;;4854973;29;20226;-59
2023/03/18 12:51:40;;;;;;;3.13;1.83;;;17.90;99.90;;;;;;4852925;29;20230;-59
2023/03/18 12:54:14;;;;;;;2.47;1.80;;;17.90;99.90;;;;;;4851631;29;20736;-59
2023/03/18 12:56:49;;;;;;;2.90;2.20;;;17.20;99.90;;;;;;4858655;29;20218;-59
2023/03/18 12:59:24;;;;;;;1.90;1.80;;;17.30;99.90;;;;;;4848882;29;20267;-59
2023/03/18 13:02:06;;;;;;;2.53;1.90;;;17.60;99.90;;;;;;4859977;29;20252;-59